Terminal Aerodrome Forecast
Issued by NWS Tuscon, AZ

Home | Current Version | Previous Version | Text Only | Print | Product List | Glossary On
Versions: 1 2 3 4 5 6 7 8 9 10 11 12 13
000
FTUS45 KTWC 260500
TAFTUS
TAF
KTUS 260520Z 2606/2706 14010KT P6SM SCT050 BKN070
     FM260700 13007KT P6SM SCT070 BKN100
     FM261500 VRB03KT P6SM SCT100
     FM262000 32010KT P6SM FEW100=

USA.gov is the U.S. government's official web portal to all federal, state and local government web resources and services.